sensor_id;sensor_type;location;lat;lon;timestamp;P1;durP1;ratioP1;P2;durP2;ratioP2
41661;SDS011;27351;45.992;12.666;2022-11-20T00:02:23;8.68;;;4.72;;
41661;SDS011;27351;45.992;12.666;2022-11-20T00:04:48;8.80;;;4.43;;
41661;SDS011;27351;45.992;12.666;2022-11-20T00:07:14;7.63;;;4.07;;
41661;SDS011;27351;45.992;12.666;2022-11-20T00:09:40;8.10;;;3.95;;
41661;SDS011;27351;45.992;12.666;2022-11-20T00:12:06;8.25;;;3.80;;
41661;SDS011;27351;45.992;12.666;2022-11-20T00:14:31;6.80;;;3.75;;
41661;SDS011;27351;45.992;12.666;2022-11-20T00:16:57;6.97;;;3.70;;
41661;SDS011;27351;45.992;12.666;2022-11-20T00:19:23;7.67;;;3.60;;
41661;SDS011;27351;45.992;12.666;2022-11-20T00:21:50;7.57;;;3.90;;
41661;SDS011;27351;45.992;12.666;2022-11-20T00:24:21;7.95;;;3.70;;
41661;SDS011;27351;45.992;12.666;2022-11-20T00:26:46;7.03;;;3.78;;
41661;SDS011;27351;45.992;12.666;2022-11-20T00:29:12;7.57;;;3.88;;
41661;SDS011;27351;45.992;12.666;2022-11-20T00:31:38;6.87;;;3.87;;
41661;SDS011;27351;45.992;12.666;2022-11-20T00:34:03;7.43;;;3.90;;
41661;SDS011;27351;45.992;12.666;2022-11-20T00:36:32;7.27;;;3.90;;
41661;SDS011;27351;45.992;12.666;2022-11-20T00:38:58;6.75;;;3.78;;
41661;SDS011;27351;45.992;12.666;2022-11-20T00:41:25;7.22;;;3.88;;
41661;SDS011;27351;45.992;12.666;2022-11-20T00:43:52;8.35;;;3.75;;
41661;SDS011;27351;45.992;12.666;2022-11-20T00:46:19;8.23;;;3.92;;
41661;SDS011;27351;45.992;12.666;2022-11-20T00:48:46;7.57;;;3.72;;
41661;SDS011;27351;45.992;12.666;2022-11-20T00:51:13;7.57;;;3.85;;
41661;SDS011;27351;45.992;12.666;2022-11-20T00:53:40;6.72;;;3.58;;
41661;SDS011;27351;45.992;12.666;2022-11-20T00:56:08;7.45;;;3.40;;
41661;SDS011;27351;45.992;12.666;2022-11-20T00:58:35;7.07;;;3.95;;
41661;SDS011;27351;45.992;12.666;2022-11-20T01:01:10;7.70;;;3.88;;
41661;SDS011;27351;45.992;12.666;2022-11-20T01:03:40;6.22;;;3.42;;
41661;SDS011;27351;45.992;12.666;2022-11-20T01:06:07;10.40;;;4.20;;
41661;SDS011;27351;45.992;12.666;2022-11-20T01:08:35;7.75;;;3.75;;
41661;SDS011;27351;45.992;12.666;2022-11-20T01:11:04;8.90;;;4.23;;
41661;SDS011;27351;45.992;12.666;2022-11-20T01:13:32;6.97;;;4.10;;
41661;SDS011;27351;45.992;12.666;2022-11-20T01:16:04;7.47;;;3.88;;
41661;SDS011;27351;45.992;12.666;2022-11-20T01:18:30;7.25;;;3.80;;
41661;SDS011;27351;45.992;12.666;2022-11-20T01:21:00;8.45;;;4.00;;
41661;SDS011;27351;45.992;12.666;2022-11-20T01:23:26;6.63;;;3.42;;
41661;SDS011;27351;45.992;12.666;2022-11-20T01:25:51;6.67;;;3.40;;
41661;SDS011;27351;45.992;12.666;2022-11-20T01:28:17;7.97;;;3.87;;
41661;SDS011;27351;45.992;12.666;2022-11-20T01:30:43;7.93;;;4.10;;
41661;SDS011;27351;45.992;12.666;2022-11-20T01:33:08;7.33;;;3.70;;
41661;SDS011;27351;45.992;12.666;2022-11-20T01:35:34;7.97;;;4.10;;
41661;SDS011;27351;45.992;12.666;2022-11-20T01:37:59;6.33;;;3.17;;
41661;SDS011;27351;45.992;12.666;2022-11-20T01:40:25;7.70;;;3.55;;
41661;SDS011;27351;45.992;12.666;2022-11-20T01:42:53;6.30;;;3.30;;
41661;SDS011;27351;45.992;12.666;2022-11-20T01:48:25;6.55;;;3.28;;
41661;SDS011;27351;45.992;12.666;2022-11-20T01:50:52;5.90;;;3.17;;
41661;SDS011;27351;45.992;12.666;2022-11-20T01:53:20;6.40;;;3.50;;
41661;SDS011;27351;45.992;12.666;2022-11-20T01:55:51;7.78;;;2.80;;
41661;SDS011;27351;45.992;12.666;2022-11-20T01:58:19;6.80;;;3.08;;
41661;SDS011;27351;45.992;12.666;2022-11-20T02:00:45;7.05;;;3.25;;
41661;SDS011;27351;45.992;12.666;2022-11-20T02:03:13;8.17;;;3.50;;
41661;SDS011;27351;45.992;12.666;2022-11-20T02:08:06;7.77;;;3.60;;
41661;SDS011;27351;45.992;12.666;2022-11-20T02:10:32;6.00;;;3.00;;
41661;SDS011;27351;45.992;12.666;2022-11-20T02:12:58;5.70;;;3.03;;
41661;SDS011;27351;45.992;12.666;2022-11-20T02:15:43;6.55;;;3.60;;
41661;SDS011;27351;45.992;12.666;2022-11-20T02:18:11;6.40;;;3.03;;
41661;SDS011;27351;45.992;12.666;2022-11-20T02:20:37;6.22;;;3.10;;
41661;SDS011;27351;45.992;12.666;2022-11-20T02:25:48;8.10;;;3.50;;
41661;SDS011;27351;45.992;12.666;2022-11-20T02:28:14;6.68;;;3.30;;
41661;SDS011;27351;45.992;12.666;2022-11-20T02:30:40;5.35;;;3.00;;
41661;SDS011;27351;45.992;12.666;2022-11-20T02:33:06;7.45;;;3.90;;
41661;SDS011;27351;45.992;12.666;2022-11-20T02:37:59;5.65;;;3.03;;
41661;SDS011;27351;45.992;12.666;2022-11-20T02:40:26;8.25;;;3.20;;
41661;SDS011;27351;45.992;12.666;2022-11-20T02:42:55;4.57;;;2.28;;
41661;SDS011;27351;45.992;12.666;2022-11-20T02:45:22;4.63;;;2.47;;
41661;SDS011;27351;45.992;12.666;2022-11-20T02:47:49;4.93;;;2.33;;
41661;SDS011;27351;45.992;12.666;2022-11-20T02:50:16;4.60;;;2.30;;
41661;SDS011;27351;45.992;12.666;2022-11-20T02:52:42;5.47;;;2.35;;
41661;SDS011;27351;45.992;12.666;2022-11-20T02:55:09;4.50;;;2.50;;
41661;SDS011;27351;45.992;12.666;2022-11-20T02:57:35;5.15;;;2.90;;
41661;SDS011;27351;45.992;12.666;2022-11-20T03:00:01;5.57;;;3.03;;
41661;SDS011;27351;45.992;12.666;2022-11-20T03:02:29;5.23;;;2.70;;
41661;SDS011;27351;45.992;12.666;2022-11-20T03:04:55;7.85;;;3.00;;
41661;SDS011;27351;45.992;12.666;2022-11-20T03:07:20;6.17;;;3.03;;
41661;SDS011;27351;45.992;12.666;2022-11-20T03:09:46;6.57;;;3.30;;
41661;SDS011;27351;45.992;12.666;2022-11-20T03:12:12;6.87;;;3.30;;
41661;SDS011;27351;45.992;12.666;2022-11-20T03:14:37;5.93;;;3.05;;
41661;SDS011;27351;45.992;12.666;2022-11-20T03:17:03;6.15;;;2.90;;
41661;SDS011;27351;45.992;12.666;2022-11-20T03:19:29;5.35;;;2.70;;
41661;SDS011;27351;45.992;12.666;2022-11-20T03:21:55;8.07;;;3.00;;
41661;SDS011;27351;45.992;12.666;2022-11-20T03:24:21;6.65;;;2.72;;
41661;SDS011;27351;45.992;12.666;2022-11-20T03:26:46;6.22;;;3.10;;
41661;SDS011;27351;45.992;12.666;2022-11-20T03:29:12;5.50;;;2.60;;
41661;SDS011;27351;45.992;12.666;2022-11-20T03:31:38;6.03;;;2.90;;
41661;SDS011;27351;45.992;12.666;2022-11-20T03:34:09;6.32;;;2.75;;
41661;SDS011;27351;45.992;12.666;2022-11-20T03:36:36;7.75;;;3.13;;
41661;SDS011;27351;45.992;12.666;2022-11-20T03:39:02;4.60;;;2.30;;
41661;SDS011;27351;45.992;12.666;2022-11-20T03:41:30;4.57;;;2.57;;
41661;SDS011;27351;45.992;12.666;2022-11-20T03:43:57;4.78;;;2.35;;
41661;SDS011;27351;45.992;12.666;2022-11-20T03:46:24;4.93;;;2.20;;
41661;SDS011;27351;45.992;12.666;2022-11-20T03:48:50;6.25;;;2.63;;
41661;SDS011;27351;45.992;12.666;2022-11-20T03:51:17;6.32;;;2.63;;
41661;SDS011;27351;45.992;12.666;2022-11-20T03:53:44;5.45;;;2.78;;
41661;SDS011;27351;45.992;12.666;2022-11-20T03:56:11;5.20;;;2.45;;
41661;SDS011;27351;45.992;12.666;2022-11-20T03:58:37;5.13;;;2.60;;
41661;SDS011;27351;45.992;12.666;2022-11-20T04:01:06;4.57;;;2.30;;
41661;SDS011;27351;45.992;12.666;2022-11-20T04:03:33;6.80;;;2.15;;
41661;SDS011;27351;45.992;12.666;2022-11-20T04:06:06;9.27;;;2.50;;
41661;SDS011;27351;45.992;12.666;2022-11-20T04:08:32;6.13;;;2.30;;
41661;SDS011;27351;45.992;12.666;2022-11-20T04:11:10;7.15;;;2.65;;
41661;SDS011;27351;45.992;12.666;2022-11-20T04:13:36;4.97;;;2.40;;
41661;SDS011;27351;45.992;12.666;2022-11-20T04:16:02;4.22;;;2.40;;
41661;SDS011;27351;45.992;12.666;2022-11-20T04:18:29;5.17;;;2.47;;
41661;SDS011;27351;45.992;12.666;2022-11-20T04:20:58;5.10;;;2.40;;
41661;SDS011;27351;45.992;12.666;2022-11-20T04:23:24;4.18;;;2.13;;
41661;SDS011;27351;45.992;12.666;2022-11-20T04:25:51;5.07;;;2.40;;
41661;SDS011;27351;45.992;12.666;2022-11-20T04:28:16;4.20;;;2.10;;
41661;SDS011;27351;45.992;12.666;2022-11-20T04:30:42;4.47;;;2.33;;
41661;SDS011;27351;45.992;12.666;2022-11-20T04:33:08;4.97;;;2.17;;
41661;SDS011;27351;45.992;12.666;2022-11-20T04:35:34;4.30;;;1.95;;
41661;SDS011;27351;45.992;12.666;2022-11-20T04:38:00;4.60;;;2.40;;
41661;SDS011;27351;45.992;12.666;2022-11-20T04:40:25;4.37;;;2.00;;
41661;SDS011;27351;45.992;12.666;2022-11-20T04:42:51;4.90;;;2.33;;
41661;SDS011;27351;45.992;12.666;2022-11-20T04:45:18;6.47;;;2.78;;
41661;SDS011;27351;45.992;12.666;2022-11-20T04:47:44;6.15;;;2.80;;
41661;SDS011;27351;45.992;12.666;2022-11-20T04:50:09;5.40;;;2.70;;
41661;SDS011;27351;45.992;12.666;2022-11-20T04:52:35;4.60;;;2.17;;
41661;SDS011;27351;45.992;12.666;2022-11-20T04:55:01;3.28;;;1.90;;
41661;SDS011;27351;45.992;12.666;2022-11-20T04:57:27;4.00;;;2.10;;
41661;SDS011;27351;45.992;12.666;2022-11-20T04:59:53;4.57;;;2.10;;
41661;SDS011;27351;45.992;12.666;2022-11-20T05:02:19;4.78;;;2.00;;
41661;SDS011;27351;45.992;12.666;2022-11-20T05:04:45;3.80;;;1.92;;
41661;SDS011;27351;45.992;12.666;2022-11-20T05:07:10;3.63;;;2.08;;
41661;SDS011;27351;45.992;12.666;2022-11-20T05:09:36;6.80;;;1.90;;
41661;SDS011;27351;45.992;12.666;2022-11-20T05:12:02;4.15;;;1.90;;
41661;SDS011;27351;45.992;12.666;2022-11-20T05:14:28;3.15;;;1.75;;
41661;SDS011;27351;45.992;12.666;2022-11-20T05:16:54;4.50;;;2.00;;
41661;SDS011;27351;45.992;12.666;2022-11-20T05:19:19;4.75;;;2.20;;
41661;SDS011;27351;45.992;12.666;2022-11-20T05:21:45;4.63;;;2.25;;
41661;SDS011;27351;45.992;12.666;2022-11-20T05:24:11;4.43;;;2.17;;
41661;SDS011;27351;45.992;12.666;2022-11-20T05:26:37;4.20;;;2.13;;
41661;SDS011;27351;45.992;12.666;2022-11-20T05:29:03;6.70;;;2.20;;
41661;SDS011;27351;45.992;12.666;2022-11-20T05:31:28;4.00;;;1.95;;
41661;SDS011;27351;45.992;12.666;2022-11-20T05:33:56;4.75;;;2.03;;
41661;SDS011;27351;45.992;12.666;2022-11-20T05:36:22;4.15;;;2.10;;
41661;SDS011;27351;45.992;12.666;2022-11-20T05:38:49;5.15;;;2.33;;
41661;SDS011;27351;45.992;12.666;2022-11-20T05:41:17;5.13;;;2.25;;
41661;SDS011;27351;45.992;12.666;2022-11-20T05:43:44;5.45;;;2.08;;
41661;SDS011;27351;45.992;12.666;2022-11-20T05:46:11;5.20;;;2.40;;
41661;SDS011;27351;45.992;12.666;2022-11-20T05:48:38;5.93;;;2.53;;
41661;SDS011;27351;45.992;12.666;2022-11-20T05:51:05;6.47;;;2.92;;
41661;SDS011;27351;45.992;12.666;2022-11-20T05:53:33;6.57;;;2.55;;
41661;SDS011;27351;45.992;12.666;2022-11-20T05:56:00;4.93;;;2.50;;
41661;SDS011;27351;45.992;12.666;2022-11-20T05:58:29;4.85;;;2.20;;
41661;SDS011;27351;45.992;12.666;2022-11-20T06:01:03;4.43;;;2.40;;
41661;SDS011;27351;45.992;12.666;2022-11-20T06:03:29;8.00;;;2.42;;
41661;SDS011;27351;45.992;12.666;2022-11-20T06:05:54;5.00;;;2.25;;
41661;SDS011;27351;45.992;12.666;2022-11-20T06:08:20;5.70;;;2.60;;
41661;SDS011;27351;45.992;12.666;2022-11-20T06:10:46;5.20;;;2.17;;
41661;SDS011;27351;45.992;12.666;2022-11-20T06:13:11;5.43;;;2.42;;
41661;SDS011;27351;45.992;12.666;2022-11-20T06:15:37;5.47;;;2.30;;
41661;SDS011;27351;45.992;12.666;2022-11-20T06:18:02;3.63;;;2.20;;
41661;SDS011;27351;45.992;12.666;2022-11-20T06:20:29;3.88;;;1.70;;
41661;SDS011;27351;45.992;12.666;2022-11-20T06:22:54;4.20;;;1.90;;
41661;SDS011;27351;45.992;12.666;2022-11-20T06:25:21;4.17;;;2.10;;
41661;SDS011;27351;45.992;12.666;2022-11-20T06:27:47;4.63;;;1.70;;
41661;SDS011;27351;45.992;12.666;2022-11-20T06:30:13;3.25;;;1.80;;
41661;SDS011;27351;45.992;12.666;2022-11-20T06:32:38;3.38;;;2.05;;
41661;SDS011;27351;45.992;12.666;2022-11-20T06:35:04;3.33;;;1.77;;
41661;SDS011;27351;45.992;12.666;2022-11-20T06:37:30;3.30;;;1.90;;
41661;SDS011;27351;45.992;12.666;2022-11-20T06:39:56;2.85;;;1.73;;
41661;SDS011;27351;45.992;12.666;2022-11-20T06:42:22;3.78;;;1.67;;
41661;SDS011;27351;45.992;12.666;2022-11-20T06:44:48;3.08;;;1.63;;
41661;SDS011;27351;45.992;12.666;2022-11-20T06:47:13;4.93;;;2.03;;
41661;SDS011;27351;45.992;12.666;2022-11-20T06:49:39;4.35;;;2.17;;
41661;SDS011;27351;45.992;12.666;2022-11-20T06:52:05;3.88;;;1.80;;
41661;SDS011;27351;45.992;12.666;2022-11-20T06:54:30;5.47;;;1.87;;
41661;SDS011;27351;45.992;12.666;2022-11-20T06:56:56;4.97;;;2.07;;
41661;SDS011;27351;45.992;12.666;2022-11-20T06:59:22;5.07;;;2.15;;
41661;SDS011;27351;45.992;12.666;2022-11-20T07:01:48;4.60;;;2.38;;
41661;SDS011;27351;45.992;12.666;2022-11-20T07:04:13;3.67;;;1.80;;
41661;SDS011;27351;45.992;12.666;2022-11-20T07:06:39;4.05;;;2.10;;
41661;SDS011;27351;45.992;12.666;2022-11-20T07:09:14;4.40;;;2.40;;
41661;SDS011;27351;45.992;12.666;2022-11-20T07:11:46;4.03;;;2.00;;
41661;SDS011;27351;45.992;12.666;2022-11-20T07:14:17;6.68;;;2.72;;
41661;SDS011;27351;45.992;12.666;2022-11-20T07:16:43;4.63;;;2.10;;
41661;SDS011;27351;45.992;12.666;2022-11-20T07:19:09;3.70;;;2.08;;
41661;SDS011;27351;45.992;12.666;2022-11-20T07:21:38;3.67;;;1.60;;
41661;SDS011;27351;45.992;12.666;2022-11-20T07:24:05;3.75;;;2.00;;
41661;SDS011;27351;45.992;12.666;2022-11-20T07:26:31;5.10;;;1.92;;
41661;SDS011;27351;45.992;12.666;2022-11-20T07:28:57;4.45;;;2.13;;
41661;SDS011;27351;45.992;12.666;2022-11-20T07:31:23;4.13;;;2.13;;
41661;SDS011;27351;45.992;12.666;2022-11-20T07:33:50;4.18;;;2.42;;
41661;SDS011;27351;45.992;12.666;2022-11-20T07:36:16;4.03;;;2.20;;
41661;SDS011;27351;45.992;12.666;2022-11-20T07:38:42;5.68;;;2.70;;
41661;SDS011;27351;45.992;12.666;2022-11-20T07:41:08;5.80;;;2.90;;
41661;SDS011;27351;45.992;12.666;2022-11-20T07:43:34;5.93;;;3.28;;
41661;SDS011;27351;45.992;12.666;2022-11-20T07:46:00;3.80;;;2.35;;
41661;SDS011;27351;45.992;12.666;2022-11-20T07:48:27;4.05;;;1.80;;
41661;SDS011;27351;45.992;12.666;2022-11-20T07:50:54;4.78;;;2.40;;
41661;SDS011;27351;45.992;12.666;2022-11-20T07:53:20;5.05;;;2.67;;
41661;SDS011;27351;45.992;12.666;2022-11-20T07:55:47;7.63;;;2.67;;
41661;SDS011;27351;45.992;12.666;2022-11-20T07:58:13;6.15;;;2.50;;
41661;SDS011;27351;45.992;12.666;2022-11-20T08:00:40;5.20;;;2.35;;
41661;SDS011;27351;45.992;12.666;2022-11-20T08:03:06;3.85;;;2.00;;
41661;SDS011;27351;45.992;12.666;2022-11-20T08:05:32;5.03;;;2.30;;
41661;SDS011;27351;45.992;12.666;2022-11-20T08:07:58;4.68;;;2.40;;
41661;SDS011;27351;45.992;12.666;2022-11-20T08:10:25;3.42;;;1.90;;
41661;SDS011;27351;45.992;12.666;2022-11-20T08:12:51;4.53;;;2.08;;
41661;SDS011;27351;45.992;12.666;2022-11-20T08:15:37;4.38;;;2.17;;
41661;SDS011;27351;45.992;12.666;2022-11-20T08:18:04;4.75;;;2.20;;
41661;SDS011;27351;45.992;12.666;2022-11-20T08:20:31;3.90;;;2.00;;
41661;SDS011;27351;45.992;12.666;2022-11-20T08:22:58;4.93;;;2.17;;
41661;SDS011;27351;45.992;12.666;2022-11-20T08:25:25;5.03;;;2.25;;
41661;SDS011;27351;45.992;12.666;2022-11-20T08:27:51;3.72;;;1.90;;
41661;SDS011;27351;45.992;12.666;2022-11-20T08:30:18;3.72;;;1.67;;
41661;SDS011;27351;45.992;12.666;2022-11-20T08:32:45;4.63;;;2.13;;
41661;SDS011;27351;45.992;12.666;2022-11-20T08:35:11;4.17;;;1.90;;
41661;SDS011;27351;45.992;12.666;2022-11-20T08:37:37;4.43;;;2.17;;
41661;SDS011;27351;45.992;12.666;2022-11-20T08:40:09;5.50;;;2.08;;
41661;SDS011;27351;45.992;12.666;2022-11-20T08:42:36;4.55;;;2.30;;
41661;SDS011;27351;45.992;12.666;2022-11-20T08:45:02;4.18;;;2.10;;
41661;SDS011;27351;45.992;12.666;2022-11-20T08:47:28;5.10;;;2.35;;
41661;SDS011;27351;45.992;12.666;2022-11-20T08:49:55;4.45;;;2.10;;
41661;SDS011;27351;45.992;12.666;2022-11-20T08:52:21;3.85;;;1.83;;
41661;SDS011;27351;45.992;12.666;2022-11-20T08:54:47;4.45;;;2.45;;
41661;SDS011;27351;45.992;12.666;2022-11-20T08:57:12;3.80;;;2.05;;
41661;SDS011;27351;45.992;12.666;2022-11-20T08:59:38;3.40;;;1.70;;
41661;SDS011;27351;45.992;12.666;2022-11-20T09:02:05;5.00;;;2.20;;
41661;SDS011;27351;45.992;12.666;2022-11-20T09:04:30;5.50;;;2.53;;
41661;SDS011;27351;45.992;12.666;2022-11-20T09:06:56;5.65;;;2.72;;
41661;SDS011;27351;45.992;12.666;2022-11-20T09:09:22;6.83;;;3.33;;
41661;SDS011;27351;45.992;12.666;2022-11-20T09:11:48;7.05;;;3.20;;
41661;SDS011;27351;45.992;12.666;2022-11-20T09:14:15;5.78;;;2.80;;
41661;SDS011;27351;45.992;12.666;2022-11-20T09:19:18;11.23;;;5.18;;
41661;SDS011;27351;45.992;12.666;2022-11-20T09:21:44;8.30;;;4.00;;
41661;SDS011;27351;45.992;12.666;2022-11-20T09:24:10;5.13;;;2.83;;
41661;SDS011;27351;45.992;12.666;2022-11-20T09:26:38;4.93;;;2.53;;
41661;SDS011;27351;45.992;12.666;2022-11-20T09:29:04;4.73;;;2.03;;
41661;SDS011;27351;45.992;12.666;2022-11-20T09:31:31;5.47;;;2.50;;
41661;SDS011;27351;45.992;12.666;2022-11-20T09:33:58;5.63;;;2.30;;
41661;SDS011;27351;45.992;12.666;2022-11-20T09:36:24;4.10;;;2.33;;
41661;SDS011;27351;45.992;12.666;2022-11-20T09:38:50;4.40;;;2.10;;
41661;SDS011;27351;45.992;12.666;2022-11-20T09:46:50;4.40;;;2.13;;
41661;SDS011;27351;45.992;12.666;2022-11-20T09:52:04;3.80;;;1.97;;
41661;SDS011;27351;45.992;12.666;2022-11-20T09:54:38;3.83;;;2.03;;
41661;SDS011;27351;45.992;12.666;2022-11-20T09:57:12;4.88;;;2.30;;
41661;SDS011;27351;45.992;12.666;2022-11-20T09:59:41;4.13;;;2.28;;
41661;SDS011;27351;45.992;12.666;2022-11-20T10:04:52;4.90;;;2.00;;
41661;SDS011;27351;45.992;12.666;2022-11-20T10:07:23;5.03;;;2.60;;
41661;SDS011;27351;45.992;12.666;2022-11-20T10:09:51;3.53;;;1.80;;
41661;SDS011;27351;45.992;12.666;2022-11-20T10:17:59;4.10;;;1.92;;
41661;SDS011;27351;45.992;12.666;2022-11-20T10:29:09;2.95;;;1.40;;
41661;SDS011;27351;45.992;12.666;2022-11-20T10:31:51;2.75;;;1.40;;
41661;SDS011;27351;45.992;12.666;2022-11-20T10:34:22;3.83;;;1.90;;
41661;SDS011;27351;45.992;12.666;2022-11-20T10:36:52;3.70;;;1.70;;
41661;SDS011;27351;45.992;12.666;2022-11-20T10:39:22;3.70;;;1.88;;
41661;SDS011;27351;45.992;12.666;2022-11-20T10:41:52;3.03;;;1.50;;
41661;SDS011;27351;45.992;12.666;2022-11-20T10:44:25;5.00;;;1.83;;
41661;SDS011;27351;45.992;12.666;2022-11-20T10:47:14;3.50;;;1.75;;
41661;SDS011;27351;45.992;12.666;2022-11-20T10:49:41;3.03;;;1.50;;
41661;SDS011;27351;45.992;12.666;2022-11-20T10:54:39;4.50;;;2.05;;
41661;SDS011;27351;45.992;12.666;2022-11-20T10:57:18;3.28;;;1.80;;
41661;SDS011;27351;45.992;12.666;2022-11-20T11:00:03;4.10;;;1.90;;
41661;SDS011;27351;45.992;12.666;2022-11-20T11:02:33;3.97;;;2.10;;
41661;SDS011;27351;45.992;12.666;2022-11-20T11:05:01;3.83;;;2.03;;
41661;SDS011;27351;45.992;12.666;2022-11-20T11:07:30;4.60;;;1.90;;
41661;SDS011;27351;45.992;12.666;2022-11-20T11:10:00;3.63;;;1.95;;
41661;SDS011;27351;45.992;12.666;2022-11-20T11:12:27;5.13;;;2.07;;
41661;SDS011;27351;45.992;12.666;2022-11-20T11:14:55;4.70;;;2.07;;
41661;SDS011;27351;45.992;12.666;2022-11-20T11:17:36;4.20;;;2.22;;
41661;SDS011;27351;45.992;12.666;2022-11-20T11:20:17;3.80;;;1.83;;
41661;SDS011;27351;45.992;12.666;2022-11-20T11:22:46;3.45;;;1.80;;
41661;SDS011;27351;45.992;12.666;2022-11-20T11:25:23;3.10;;;1.42;;
41661;SDS011;27351;45.992;12.666;2022-11-20T11:27:52;3.75;;;1.73;;
41661;SDS011;27351;45.992;12.666;2022-11-20T11:30:22;3.70;;;1.77;;
41661;SDS011;27351;45.992;12.666;2022-11-20T11:32:48;4.50;;;2.05;;
41661;SDS011;27351;45.992;12.666;2022-11-20T11:35:22;4.23;;;1.47;;
41661;SDS011;27351;45.992;12.666;2022-11-20T11:37:49;3.05;;;1.63;;
41661;SDS011;27351;45.992;12.666;2022-11-20T11:40:17;3.23;;;1.53;;
41661;SDS011;27351;45.992;12.666;2022-11-20T11:42:58;3.38;;;1.60;;
41661;SDS011;27351;45.992;12.666;2022-11-20T11:45:29;2.97;;;1.70;;
41661;SDS011;27351;45.992;12.666;2022-11-20T11:47:58;3.50;;;1.90;;
41661;SDS011;27351;45.992;12.666;2022-11-20T11:50:26;3.40;;;1.50;;
41661;SDS011;27351;45.992;12.666;2022-11-20T11:55:44;3.58;;;1.80;;
41661;SDS011;27351;45.992;12.666;2022-11-20T11:58:14;4.40;;;2.13;;
41661;SDS011;27351;45.992;12.666;2022-11-20T12:00:47;4.32;;;2.38;;
41661;SDS011;27351;45.992;12.666;2022-11-20T12:03:17;3.15;;;1.80;;
41661;SDS011;27351;45.992;12.666;2022-11-20T12:06:01;4.00;;;2.30;;
41661;SDS011;27351;45.992;12.666;2022-11-20T12:09:15;4.43;;;1.98;;
41661;SDS011;27351;45.992;12.666;2022-11-20T12:11:21;3.30;;;1.60;;
41661;SDS011;27351;45.992;12.666;2022-11-20T12:16:22;3.85;;;2.15;;
41661;SDS011;27351;45.992;12.666;2022-11-20T12:18:49;3.53;;;2.00;;
41661;SDS011;27351;45.992;12.666;2022-11-20T12:21:19;4.05;;;2.00;;
41661;SDS011;27351;45.992;12.666;2022-11-20T12:29:00;4.45;;;1.85;;
41661;SDS011;27351;45.992;12.666;2022-11-20T12:31:37;4.15;;;2.00;;
41661;SDS011;27351;45.992;12.666;2022-11-20T12:36:40;3.35;;;1.67;;
41661;SDS011;27351;45.992;12.666;2022-11-20T12:42:10;5.10;;;1.60;;
41661;SDS011;27351;45.992;12.666;2022-11-20T12:50:35;3.55;;;1.70;;
41661;SDS011;27351;45.992;12.666;2022-11-20T12:56:04;3.60;;;2.00;;
41661;SDS011;27351;45.992;12.666;2022-11-20T13:01:21;4.75;;;2.17;;
41661;SDS011;27351;45.992;12.666;2022-11-20T13:06:50;3.53;;;1.90;;
41661;SDS011;27351;45.992;12.666;2022-11-20T13:09:16;3.97;;;1.88;;
41661;SDS011;27351;45.992;12.666;2022-11-20T13:11:47;3.80;;;1.90;;
41661;SDS011;27351;45.992;12.666;2022-11-20T13:14:17;3.20;;;1.85;;
41661;SDS011;27351;45.992;12.666;2022-11-20T13:19:12;4.28;;;1.88;;
41661;SDS011;27351;45.992;12.666;2022-11-20T13:24:05;4.70;;;1.70;;
41661;SDS011;27351;45.992;12.666;2022-11-20T13:26:33;3.10;;;1.67;;
41661;SDS011;27351;45.992;12.666;2022-11-20T13:29:09;3.92;;;1.80;;
41661;SDS011;27351;45.992;12.666;2022-11-20T13:31:40;3.37;;;1.80;;
41661;SDS011;27351;45.992;12.666;2022-11-20T13:34:11;4.22;;;1.90;;
41661;SDS011;27351;45.992;12.666;2022-11-20T13:36:48;3.28;;;1.65;;
41661;SDS011;27351;45.992;12.666;2022-11-20T13:39:23;3.65;;;2.13;;
41661;SDS011;27351;45.992;12.666;2022-11-20T13:41:56;6.20;;;2.00;;
41661;SDS011;27351;45.992;12.666;2022-11-20T13:44:34;3.50;;;2.05;;
41661;SDS011;27351;45.992;12.666;2022-11-20T13:47:03;4.43;;;2.00;;
41661;SDS011;27351;45.992;12.666;2022-11-20T13:49:31;3.93;;;1.70;;
41661;SDS011;27351;45.992;12.666;2022-11-20T13:54:49;3.38;;;1.67;;
41661;SDS011;27351;45.992;12.666;2022-11-20T14:00:17;4.47;;;2.00;;
41661;SDS011;27351;45.992;12.666;2022-11-20T14:02:44;4.53;;;1.80;;
41661;SDS011;27351;45.992;12.666;2022-11-20T14:05:21;3.77;;;1.60;;
41661;SDS011;27351;45.992;12.666;2022-11-20T14:07:49;3.67;;;1.70;;
41661;SDS011;27351;45.992;12.666;2022-11-20T14:10:20;4.60;;;1.75;;
41661;SDS011;27351;45.992;12.666;2022-11-20T14:12:46;5.43;;;1.80;;
41661;SDS011;27351;45.992;12.666;2022-11-20T14:15:29;4.32;;;1.80;;
41661;SDS011;27351;45.992;12.666;2022-11-20T14:17:57;4.18;;;1.80;;
41661;SDS011;27351;45.992;12.666;2022-11-20T14:20:26;3.78;;;1.90;;
41661;SDS011;27351;45.992;12.666;2022-11-20T14:22:52;3.30;;;1.83;;
41661;SDS011;27351;45.992;12.666;2022-11-20T14:25:22;3.63;;;1.73;;
41661;SDS011;27351;45.992;12.666;2022-11-20T14:27:55;3.60;;;1.75;;
41661;SDS011;27351;45.992;12.666;2022-11-20T14:30:24;4.25;;;1.80;;
41661;SDS011;27351;45.992;12.666;2022-11-20T14:32:51;3.30;;;1.63;;
41661;SDS011;27351;45.992;12.666;2022-11-20T14:35:26;3.90;;;1.80;;
41661;SDS011;27351;45.992;12.666;2022-11-20T14:37:53;3.72;;;1.70;;
41661;SDS011;27351;45.992;12.666;2022-11-20T14:40:28;4.00;;;2.00;;
41661;SDS011;27351;45.992;12.666;2022-11-20T14:42:54;3.42;;;1.65;;
41661;SDS011;27351;45.992;12.666;2022-11-20T14:45:20;3.25;;;1.77;;
41661;SDS011;27351;45.992;12.666;2022-11-20T14:47:46;5.07;;;2.15;;
41661;SDS011;27351;45.992;12.666;2022-11-20T14:50:14;4.00;;;1.83;;
41661;SDS011;27351;45.992;12.666;2022-11-20T14:52:49;4.22;;;1.98;;
41661;SDS011;27351;45.992;12.666;2022-11-20T14:55:24;5.00;;;1.90;;
41661;SDS011;27351;45.992;12.666;2022-11-20T14:57:54;3.17;;;1.90;;
41661;SDS011;27351;45.992;12.666;2022-11-20T15:00:21;3.63;;;1.83;;
41661;SDS011;27351;45.992;12.666;2022-11-20T15:02:48;4.22;;;2.10;;
41661;SDS011;27351;45.992;12.666;2022-11-20T15:05:14;3.78;;;1.98;;
41661;SDS011;27351;45.992;12.666;2022-11-20T15:07:42;4.13;;;2.10;;
41661;SDS011;27351;45.992;12.666;2022-11-20T15:10:32;4.05;;;1.77;;
41661;SDS011;27351;45.992;12.666;2022-11-20T15:13:05;4.07;;;1.98;;
41661;SDS011;27351;45.992;12.666;2022-11-20T15:15:38;5.50;;;2.45;;
41661;SDS011;27351;45.992;12.666;2022-11-20T15:18:13;6.38;;;2.30;;
41661;SDS011;27351;45.992;12.666;2022-11-20T15:20:41;4.40;;;2.03;;
41661;SDS011;27351;45.992;12.666;2022-11-20T15:23:11;4.33;;;2.03;;
41661;SDS011;27351;45.992;12.666;2022-11-20T15:25:37;4.55;;;2.00;;
41661;SDS011;27351;45.992;12.666;2022-11-20T15:30:46;5.78;;;2.50;;
41661;SDS011;27351;45.992;12.666;2022-11-20T15:33:12;5.65;;;2.60;;
41661;SDS011;27351;45.992;12.666;2022-11-20T15:35:38;5.63;;;2.57;;
41661;SDS011;27351;45.992;12.666;2022-11-20T15:38:28;5.05;;;2.50;;
41661;SDS011;27351;45.992;12.666;2022-11-20T15:40:54;4.95;;;2.60;;
41661;SDS011;27351;45.992;12.666;2022-11-20T15:43:20;4.95;;;2.53;;
41661;SDS011;27351;45.992;12.666;2022-11-20T15:45:46;6.55;;;2.78;;
41661;SDS011;27351;45.992;12.666;2022-11-20T15:53:28;6.38;;;2.78;;
41661;SDS011;27351;45.992;12.666;2022-11-20T15:55:54;6.63;;;2.67;;
41661;SDS011;27351;45.992;12.666;2022-11-20T15:58:21;4.93;;;2.65;;
41661;SDS011;27351;45.992;12.666;2022-11-20T16:00:50;5.70;;;2.90;;
41661;SDS011;27351;45.992;12.666;2022-11-20T16:03:18;5.05;;;2.65;;
41661;SDS011;27351;45.992;12.666;2022-11-20T16:05:45;5.22;;;2.92;;
41661;SDS011;27351;45.992;12.666;2022-11-20T16:08:10;7.75;;;3.30;;
41661;SDS011;27351;45.992;12.666;2022-11-20T16:10:36;7.10;;;2.92;;